Time,TemperatureF,DewpointF,PressureIn,WindDirection,WindDirectionDegrees,WindSpeedMPH,WindSpeedGustMPH,Humidity,HourlyPrecipIn,Conditions,Clouds,dailyrainin,SoftwareType,DateUTC
2013-04-07 00:03:00,64.0,57.0,30.01,ENE,72,0.0,1.0,78,0.00,,,0.00,,2013-04-07 04:03:00,
2013-04-07 00:14:00,64.0,57.0,30.01,ENE,72,0.0,1.0,78,0.00,,,0.00,,2013-04-07 04:14:00,
2013-04-07 00:23:00,64.0,57.0,30.01,NE,48,0.0,2.0,78,0.00,,,0.00,,2013-04-07 04:23:00,
2013-04-07 00:32:00,63.0,56.0,30.01,ENE,58,0.0,0.0,79,0.00,,,0.00,,2013-04-07 04:32:00,
2013-04-07 00:43:00,63.0,56.0,30.01,ENE,58,0.0,0.0,79,0.00,,,0.00,,2013-04-07 04:43:00,
2013-04-07 00:53:00,63.0,56.0,30.01,ENE,58,0.0,0.0,78,0.00,,,0.00,,2013-04-07 04:53:00,
2013-04-07 01:02:00,62.0,55.0,30.01,ENE,58,0.0,0.0,78,0.00,,,0.00,,2013-04-07 05:02:00,
2013-04-07 01:12:00,62.0,55.0,30.01,ENE,58,0.0,0.0,78,0.00,,,0.00,,2013-04-07 05:12:00,
2013-04-07 01:23:00,62.0,55.0,30.01,ENE,66,0.0,0.0,79,0.00,,,0.00,,2013-04-07 05:23:00,
2013-04-07 01:33:00,62.0,56.0,30.00,ENE,68,0.0,0.0,81,0.00,,,0.00,,2013-04-07 05:33:00,
2013-04-07 01:43:00,62.0,56.0,30.00,ENE,68,0.0,0.0,81,0.00,,,0.00,,2013-04-07 05:43:00,
2013-04-07 01:52:00,61.0,55.0,30.00,ENE,69,0.0,0.0,81,0.00,,,0.00,,2013-04-07 05:52:00,
2013-04-07 02:02:00,61.0,56.0,29.99,East,79,1.0,2.0,83,0.00,,,0.00,,2013-04-07 06:02:00,
2013-04-07 02:12:00,61.0,56.0,29.99,East,79,1.0,2.0,83,0.00,,,0.00,,2013-04-07 06:12:00,
2013-04-07 02:22:00,61.0,56.0,29.98,ENE,71,1.0,2.0,84,0.00,,,0.00,,2013-04-07 06:22:00,
2013-04-07 02:32:00,61.0,56.0,29.98,ENE,75,0.0,0.0,84,0.00,,,0.00,,2013-04-07 06:32:00,
2013-04-07 02:43:00,61.0,56.0,29.98,ENE,75,0.0,0.0,84,0.00,,,0.00,,2013-04-07 06:43:00,
2013-04-07 02:53:00,61.0,56.0,29.98,ENE,75,0.0,0.0,84,0.00,,,0.00,,2013-04-07 06:53:00,
2013-04-07 03:02:00,60.0,55.0,29.98,ENE,75,0.0,0.0,84,0.00,,,0.00,,2013-04-07 07:02:00,
2013-04-07 03:12:00,60.0,55.0,29.98,ENE,75,0.0,0.0,84,0.00,,,0.00,,2013-04-07 07:12:00,
2013-04-07 03:22:00,60.0,55.0,29.97,ENE,75,0.0,0.0,84,0.00,,,0.00,,2013-04-07 07:22:00,
2013-04-07 03:33:00,59.0,54.0,29.96,ENE,75,0.0,0.0,85,0.00,,,0.00,,2013-04-07 07:33:00,
2013-04-07 03:42:00,59.0,54.0,29.96,ENE,75,0.0,0.0,85,0.00,,,0.00,,2013-04-07 07:42:00,
2013-04-07 03:52:00,59.0,54.0,29.96,ENE,75,0.0,0.0,85,0.00,,,0.00,,2013-04-07 07:52:00,
2013-04-07 04:02:00,59.0,55.0,29.95,East,88,0.0,0.0,86,0.00,,,0.00,,2013-04-07 08:02:00,
2013-04-07 04:12:00,59.0,55.0,29.95,East,88,0.0,0.0,86,0.00,,,0.00,,2013-04-07 08:12:00,
2013-04-07 04:22:00,59.0,55.0,29.95,East,82,0.0,1.0,87,0.00,,,0.00,,2013-04-07 08:22:00,
2013-04-07 04:33:00,59.0,55.0,29.96,East,101,0.0,1.0,88,0.00,,,0.00,,2013-04-07 08:33:00,
2013-04-07 04:42:00,59.0,55.0,29.96,East,101,0.0,1.0,88,0.00,,,0.00,,2013-04-07 08:42:00,
2013-04-07 04:53:00,59.0,56.0,29.96,East,80,0.0,0.0,89,0.00,,,0.00,,2013-04-07 08:53:00,
2013-04-07 05:02:00,59.0,56.0,29.96,ENE,78,0.0,0.0,89,0.00,,,0.00,,2013-04-07 09:02:00,
2013-04-07 05:12:00,59.0,56.0,29.96,ENE,78,0.0,0.0,89,0.00,,,0.00,,2013-04-07 09:12:00,
2013-04-07 05:23:00,59.0,56.0,29.97,ENE,74,0.0,0.0,89,0.00,,,0.00,,2013-04-07 09:23:00,
2013-04-07 05:33:00,59.0,56.0,29.98,ENE,75,0.0,0.0,90,0.00,,,0.00,,2013-04-07 09:33:00,
2013-04-07 05:43:00,59.0,56.0,29.98,ENE,75,0.0,0.0,90,0.00,,,0.00,,2013-04-07 09:43:00,
2013-04-07 05:54:00,59.0,56.0,29.98,ENE,75,0.0,0.0,90,0.00,,,0.00,,2013-04-07 09:54:00,
2013-04-07 06:04:00,59.0,56.0,29.98,ENE,75,0.0,0.0,90,0.00,,,0.00,,2013-04-07 10:04:00,
2013-04-07 06:14:00,59.0,56.0,29.98,ENE,75,0.0,0.0,90,0.00,,,0.00,,2013-04-07 10:14:00,
2013-04-07 06:23:00,59.0,56.0,29.98,ENE,75,0.0,0.0,90,0.00,,,0.00,,2013-04-07 10:23:00,
2013-04-07 06:33:00,59.0,56.0,29.99,ENE,75,0.0,1.0,91,0.00,,,0.00,,2013-04-07 10:33:00,
2013-04-07 06:43:00,59.0,56.0,29.99,ENE,75,0.0,1.0,91,0.00,,,0.00,,2013-04-07 10:43:00,
2013-04-07 06:54:00,59.0,56.0,30.00,ENE,75,0.0,0.0,91,0.00,,,0.00,,2013-04-07 10:54:00,
2013-04-07 07:03:00,59.0,56.0,30.00,ENE,75,0.0,0.0,91,0.00,,,0.00,,2013-04-07 11:03:00,
2013-04-07 07:12:00,59.0,56.0,30.00,ENE,75,0.0,0.0,91,0.00,,,0.00,,2013-04-07 11:12:00,
2013-04-07 07:23:00,59.0,56.0,30.01,ENE,75,0.0,0.0,91,0.00,,,0.00,,2013-04-07 11:23:00,
2013-04-07 07:33:00,59.0,56.0,30.01,NE,46,0.0,0.0,91,0.00,,,0.00,,2013-04-07 11:33:00,
2013-04-07 07:43:00,59.0,56.0,30.01,NE,46,0.0,0.0,91,0.00,,,0.00,,2013-04-07 11:43:00,
2013-04-07 07:53:00,60.0,58.0,30.02,NE,46,0.0,0.0,92,0.00,,,0.00,,2013-04-07 11:53:00,
2013-04-07 08:03:00,60.0,58.0,30.02,NE,46,0.0,1.0,92,0.00,,,0.00,,2013-04-07 12:03:00,
2013-04-07 08:12:00,60.0,58.0,30.02,NE,46,0.0,1.0,92,0.00,,,0.00,,2013-04-07 12:12:00,
2013-04-07 08:23:00,61.0,59.0,30.02,East,84,0.0,0.0,92,0.00,,,0.00,,2013-04-07 12:23:00,
2013-04-07 08:34:00,62.0,60.0,30.03,East,84,1.0,2.0,92,0.00,,,0.00,,2013-04-07 12:34:00,
2013-04-07 08:43:00,62.0,60.0,30.03,East,84,1.0,2.0,92,0.00,,,0.00,,2013-04-07 12:43:00,
2013-04-07 08:54:00,63.0,61.0,30.03,East,80,1.0,3.0,92,0.00,,,0.00,,2013-04-07 12:54:00,
2013-04-07 09:04:00,64.0,62.0,30.03,ENE,72,0.0,1.0,92,0.00,,,0.00,,2013-04-07 13:04:00,
2013-04-07 09:13:00,64.0,62.0,30.03,ENE,72,0.0,1.0,92,0.00,,,0.00,,2013-04-07 13:13:00,
2013-04-07 09:23:00,66.0,63.0,30.04,ESE,103,1.0,8.0,90,0.00,,,0.00,,2013-04-07 13:23:00,
2013-04-07 09:33:00,67.0,63.0,30.04,ENE,65,5.0,7.0,86,0.00,,,0.00,,2013-04-07 13:33:00,
2013-04-07 09:42:00,67.0,63.0,30.04,ENE,65,5.0,7.0,86,0.00,,,0.00,,2013-04-07 13:42:00,
2013-04-07 09:53:00,71.0,62.0,30.04,East,91,6.0,10.0,74,0.00,,,0.00,,2013-04-07 13:53:00,
2013-04-07 10:02:00,73.0,61.0,30.05,East,101,7.0,10.0,66,0.00,,,0.00,,2013-04-07 14:02:00,
2013-04-07 10:12:00,73.0,61.0,30.05,East,101,7.0,10.0,66,0.00,,,0.00,,2013-04-07 14:12:00,
2013-04-07 10:23:00,73.0,60.0,30.05,SE,132,2.0,6.0,64,0.00,,,0.00,,2013-04-07 14:23:00,
2013-04-07 10:33:00,75.0,60.0,30.05,East,87,6.0,8.0,59,0.00,,,0.00,,2013-04-07 14:33:00,
2013-04-07 10:44:00,75.0,60.0,30.05,East,87,6.0,8.0,59,0.00,,,0.00,,2013-04-07 14:44:00,
2013-04-07 10:55:00,75.0,59.0,30.06,East,83,7.0,10.0,58,0.00,,,0.00,,2013-04-07 14:55:00,
2013-04-07 11:03:00,77.0,60.0,30.06,ENE,61,7.0,10.0,56,0.00,,,0.00,,2013-04-07 15:03:00,
2013-04-07 11:13:00,77.0,59.0,30.05,ESE,110,8.0,13.0,54,0.00,,,0.00,,2013-04-07 15:13:00,
2013-04-07 11:22:00,77.0,59.0,30.05,ESE,110,8.0,13.0,54,0.00,,,0.00,,2013-04-07 15:22:00,
2013-04-07 11:35:00,78.0,59.0,30.05,East,90,9.0,14.0,52,0.00,,,0.00,,2013-04-07 15:35:00,
2013-04-07 11:45:00,78.0,59.0,30.05,East,90,9.0,14.0,52,0.00,,,0.00,,2013-04-07 15:45:00,
2013-04-07 11:55:00,78.0,59.0,30.05,ESE,103,5.0,7.0,52,0.00,,,0.00,,2013-04-07 15:55:00,
2013-04-07 12:04:00,79.0,59.0,30.05,SE,138,5.0,9.0,50,0.00,,,0.00,,2013-04-07 16:04:00,
2013-04-07 12:14:00,79.0,59.0,30.05,SE,138,5.0,9.0,50,0.00,,,0.00,,2013-04-07 16:14:00,
2013-04-07 12:25:00,80.0,59.0,30.05,ESE,119,5.0,7.0,49,0.00,,,0.00,,2013-04-07 16:25:00,
2013-04-07 12:33:00,79.0,58.0,30.04,ESE,108,4.0,7.0,48,0.00,,,0.00,,2013-04-07 16:33:00,
2013-04-07 12:43:00,79.0,58.0,30.04,ESE,108,4.0,7.0,48,0.00,,,0.00,,2013-04-07 16:43:00,
2013-04-07 12:54:00,80.0,59.0,30.04,East,88,6.0,8.0,49,0.00,,,0.00,,2013-04-07 16:54:00,
2013-04-07 13:05:00,80.0,57.0,30.04,ENE,72,3.0,5.0,46,0.00,,,0.00,,2013-04-07 17:05:00,
2013-04-07 13:13:00,80.0,57.0,30.04,ENE,72,3.0,5.0,46,0.00,,,0.00,,2013-04-07 17:13:00,
2013-04-07 13:23:00,79.0,56.0,30.03,SW,216,2.0,5.0,46,0.00,,,0.00,,2013-04-07 17:23:00,
2013-04-07 13:33:00,81.0,59.0,30.03,SSE,161,5.0,11.0,48,0.00,,,0.00,,2013-04-07 17:33:00,
2013-04-07 13:43:00,81.0,59.0,30.03,SSE,161,5.0,11.0,48,0.00,,,0.00,,2013-04-07 17:43:00,
2013-04-07 13:54:00,80.0,56.0,30.02,East,92,4.0,7.0,44,0.00,,,0.00,,2013-04-07 17:54:00,
2013-04-07 14:02:00,80.0,59.0,30.02,North,9,1.0,2.0,48,0.00,,,0.00,,2013-04-07 18:02:00,
2013-04-07 14:23:00,83.0,59.0,30.01,ESE,119,4.0,6.0,45,0.00,,,0.00,,2013-04-07 18:23:00,
2013-04-07 14:33:00,81.0,57.0,30.01,East,84,7.0,9.0,44,0.00,,,0.00,,2013-04-07 18:33:00,
2013-04-07 14:43:00,81.0,57.0,30.01,East,84,7.0,9.0,44,0.00,,,0.00,,2013-04-07 18:43:00,
2013-04-07 14:53:00,82.0,57.0,30.00,ENE,63,4.0,7.0,42,0.00,,,0.00,,2013-04-07 18:53:00,
2013-04-07 15:03:00,81.0,57.0,30.00,ESE,115,3.0,5.0,44,0.00,,,0.00,,2013-04-07 19:03:00,
2013-04-07 15:13:00,81.0,57.0,30.00,ESE,115,3.0,5.0,44,0.00,,,0.00,,2013-04-07 19:13:00,
2013-04-07 15:23:00,81.0,58.0,29.99,East,81,2.0,6.0,45,0.00,,,0.00,,2013-04-07 19:23:00,
2013-04-07 15:33:00,80.0,57.0,29.98,East,96,3.0,5.0,46,0.00,,,0.00,,2013-04-07 19:33:00,
2013-04-07 15:42:00,80.0,57.0,29.98,East,96,3.0,5.0,46,0.00,,,0.00,,2013-04-07 19:42:00,
2013-04-07 15:55:00,83.0,58.0,29.98,East,82,0.0,1.0,42,0.00,,,0.00,,2013-04-07 19:55:00,
2013-04-07 16:03:00,83.0,54.0,29.98,SSE,150,0.0,0.0,37,0.00,,,0.00,,2013-04-07 20:03:00,
2013-04-07 16:13:00,83.0,54.0,29.98,SSE,150,0.0,0.0,37,0.00,,,0.00,,2013-04-07 20:13:00,
2013-04-07 16:23:00,82.0,57.0,29.98,East,92,3.0,7.0,42,0.00,,,0.00,,2013-04-07 20:23:00,
2013-04-07 16:33:00,83.0,56.0,29.97,ENE,76,0.0,1.0,40,0.00,,,0.00,,2013-04-07 20:33:00,
2013-04-07 16:43:00,83.0,56.0,29.97,ENE,76,0.0,1.0,40,0.00,,,0.00,,2013-04-07 20:43:00,
2013-04-07 16:55:00,84.0,56.0,29.96,ENE,69,0.0,2.0,38,0.00,,,0.00,,2013-04-07 20:55:00,
2013-04-07 17:03:00,84.0,53.0,29.96,East,96,2.0,3.0,35,0.00,,,0.00,,2013-04-07 21:03:00,
2013-04-07 17:13:00,84.0,53.0,29.96,East,96,2.0,3.0,35,0.00,,,0.00,,2013-04-07 21:13:00,
2013-04-07 17:23:00,82.0,54.0,29.96,ESE,102,1.0,3.0,38,0.00,,,0.00,,2013-04-07 21:23:00,
2013-04-07 17:34:00,82.0,59.0,29.96,WNW,283,1.0,5.0,45,0.00,,,0.00,,2013-04-07 21:34:00,
2013-04-07 17:44:00,82.0,59.0,29.96,WNW,283,1.0,5.0,45,0.00,,,0.00,,2013-04-07 21:44:00,
2013-04-07 17:55:00,82.0,59.0,29.95,NW,324,3.0,7.0,46,0.00,,,0.00,,2013-04-07 21:55:00,
2013-04-07 18:04:00,82.0,59.0,29.95,West,275,0.0,0.0,46,0.00,,,0.00,,2013-04-07 22:04:00,
2013-04-07 18:14:00,82.0,59.0,29.95,West,275,0.0,0.0,46,0.00,,,0.00,,2013-04-07 22:14:00,
2013-04-07 18:24:00,82.0,59.0,29.95,SSE,160,3.0,6.0,45,0.00,,,0.00,,2013-04-07 22:24:00,
2013-04-07 18:34:00,81.0,59.0,29.95,West,281,5.0,9.0,48,0.00,,,0.00,,2013-04-07 22:34:00,
2013-04-07 18:43:00,81.0,59.0,29.95,West,281,5.0,9.0,48,0.00,,,0.00,,2013-04-07 22:43:00,
2013-04-07 18:54:00,80.0,59.0,29.95,WNW,301,2.0,5.0,48,0.00,,,0.00,,2013-04-07 22:54:00,
2013-04-07 19:03:00,80.0,58.0,29.95,WNW,293,4.0,8.0,47,0.00,,,0.00,,2013-04-07 23:03:00,
2013-04-07 19:13:00,80.0,58.0,29.95,WNW,293,4.0,8.0,47,0.00,,,0.00,,2013-04-07 23:13:00,
2013-04-07 19:23:00,79.0,59.0,29.96,WNW,288,1.0,4.0,50,0.00,,,0.00,,2013-04-07 23:23:00,
2013-04-07 19:33:00,77.0,59.0,29.95,WNW,292,3.0,6.0,54,0.00,,,0.00,,2013-04-07 23:33:00,
2013-04-07 19:43:00,77.0,59.0,29.95,WNW,292,3.0,6.0,54,0.00,,,0.00,,2013-04-07 23:43:00,
2013-04-07 19:53:00,76.0,60.0,29.95,WNW,291,0.0,2.0,57,0.00,,,0.00,,2013-04-07 23:53:00,
2013-04-07 20:02:00,75.0,60.0,29.95,NW,323,0.0,0.0,59,0.00,,,0.00,,2013-04-08 00:02:00,
2013-04-07 20:12:00,75.0,60.0,29.95,NW,323,0.0,0.0,59,0.00,,,0.00,,2013-04-08 00:12:00,
2013-04-07 20:23:00,74.0,59.0,29.96,NW,313,0.0,0.0,60,0.00,,,0.00,,2013-04-08 00:23:00,
2013-04-07 20:33:00,73.0,59.0,29.96,WNW,290,0.0,0.0,61,0.00,,,0.00,,2013-04-08 00:33:00,
2013-04-07 20:42:00,73.0,59.0,29.96,WNW,290,0.0,0.0,61,0.00,,,0.00,,2013-04-08 00:42:00,
2013-04-07 20:53:00,72.0,58.0,29.97,WNW,301,0.0,0.0,62,0.00,,,0.00,,2013-04-08 00:53:00,
2013-04-07 21:03:00,71.0,58.0,29.97,WNW,301,0.0,0.0,63,0.00,,,0.00,,2013-04-08 01:03:00,
2013-04-07 21:12:00,71.0,58.0,29.97,WNW,301,0.0,0.0,63,0.00,,,0.00,,2013-04-08 01:12:00,
2013-04-07 21:23:00,70.0,57.0,29.98,WNW,301,0.0,0.0,64,0.00,,,0.00,,2013-04-08 01:23:00,
2013-04-07 21:33:00,70.0,58.0,29.98,NNE,26,0.0,0.0,65,0.00,,,0.00,,2013-04-08 01:33:00,
2013-04-07 21:44:00,70.0,58.0,29.98,NNE,26,0.0,0.0,65,0.00,,,0.00,,2013-04-08 01:44:00,
2013-04-07 21:55:00,69.0,58.0,29.99,NE,46,0.0,0.0,67,0.00,,,0.00,,2013-04-08 01:55:00,
2013-04-07 22:03:00,69.0,58.0,29.99,NE,55,0.0,0.0,69,0.00,,,0.00,,2013-04-08 02:03:00,
2013-04-07 22:12:00,69.0,58.0,29.99,NE,55,0.0,0.0,69,0.00,,,0.00,,2013-04-08 02:12:00,
2013-04-07 22:22:00,70.0,60.0,30.00,East,92,0.0,0.0,70,0.00,,,0.00,,2013-04-08 02:22:00,
2013-04-07 22:33:00,70.0,59.0,30.00,East,92,0.0,0.0,69,0.00,,,0.00,,2013-04-08 02:33:00,
2013-04-07 22:47:00,70.0,59.0,30.00,East,92,0.0,0.0,69,0.00,,,0.00,,2013-04-08 02:47:00,
2013-04-07 22:55:00,70.0,60.0,30.01,ESE,119,0.0,0.0,71,0.00,,,0.00,,2013-04-08 02:55:00,
2013-04-07 23:08:00,70.0,60.0,30.01,East,82,2.0,5.0,71,0.00,,,0.00,,2013-04-08 03:08:00,
2013-04-07 23:15:00,70.0,60.0,30.01,East,82,2.0,5.0,71,0.00,,,0.00,,2013-04-08 03:15:00,
2013-04-07 23:25:00,71.0,61.0,30.01,East,95,2.0,3.0,70,0.00,,,0.00,,2013-04-08 03:25:00,
2013-04-07 23:35:00,71.0,61.0,30.01,ESE,115,3.0,8.0,70,0.00,,,0.00,,2013-04-08 03:35:00,
2013-04-07 23:47:00,71.0,61.0,30.01,ESE,115,3.0,8.0,70,0.00,,,0.00,,2013-04-08 03:47:00,
2013-04-07 23:58:00,71.0,61.0,30.01,ESE,105,1.0,3.0,70,0.00,,,0.00,,2013-04-08 03:58:00,